Marchand, Pennsylvania
Current Conditions -  °F | °C
As of 3:35 AM on Sunday 23 Nov 2014 (Local Time) from KIDI Reporting Station
Overcast Overcast  
Wind Chill: 44°   Ceiling: 5500
Heat Index: 46°   Visibility: 10mi
Dew Point: 28°   Wind: 6mph
Humidity: 50%   Direction: 240°WSW
Pressure: 30.13"   Gusts: NA
Location:  40.86°N, 79.02°W
Report Text: KIDI 230835Z AUTO 24005KT 10SM OVC055 08/M02 A3013 RMK A01
Loading
Personal Weather Stations






























Interactive Weather Map New forecast layout! Learn more

10-Day Weather Forecast

Advertisements
Track Severe Weather on mobile